ADDS METAR Data INFO
IDs: Format: Raw Decoded Include TAF

Data at: 0259 UTC 21 Oct 2017

PFKW 210256Z AUTO 22003KT 10SM FEW016 SCT025 BKN095 M02/M04 A2925 RMK AO2 SNE50 SLP906 P0000 60000 T10221039 56002 FZRANO
PFKW 210241Z AUTO 24005KT 3SM -SN BR SCT018 BKN025 OVC031 M02/M03 A2925 RMK AO2 P0000 FZRANO
PFKW 210231Z AUTO 23007KT 1 3/4SM -SN BR FEW009 BKN018 OVC036 M02/M03 A2925 RMK AO2 VIS 1/2V5 P0000 FZRANO
PFKW 210207Z AUTO 25006KT 3SM -SN BR BKN022 BKN030 OVC036 M02/M04 A2925 RMK AO2 P0000 FZRANO
PFKW 210202Z AUTO 26008KT 2 1/2SM -SN BR SCT024 BKN030 OVC036 M02/M04 A2925 RMK AO2 P0000 FZRANO
PFKW 210156Z AUTO 27008KT 3SM -SN BR BKN026 OVC035 M02/M04 A2925 RMK AO2 SLP906 P0000 T10171039 FZRANO
PFKW 210135Z AUTO 23008KT 9SM -SN BKN024 OVC031 M01/M05 A2925 RMK AO2 P0000 FZRANO
PFKW 210056Z AUTO 21009KT 10SM -SN FEW030 BKN050 M01/M05 A2925 RMK AO2 SNE23B55 SLP905 P0000 T10111050 FZRANO
PFKW 210020Z AUTO 23007KT 9SM -SN SCT017 BKN031 OVC046 M01/M04 A2926 RMK AO2 P0000 FZRANO
PFKW 202356Z AUTO 23008KT 9SM -SN OVC015 M01/M03 A2926 RMK AO2 SNB2257 SLP908 P0000 60000 T10061033 11006 21044 58009 FZRANO
PFKW 202256Z AUTO 24007KT 10SM BKN011 OVC044 M02/M03 A2928 RMK AO2 SNE27 SLP914 P0000 T10171033 FZRANO
PFKW 202222Z AUTO 21006KT 9SM -SN SCT009 OVC044 M02/M03 A2928 RMK AO2 P0000 FZRANO
PFKW 202156Z AUTO 21007KT 9SM -SN BKN011 OVC039 M02/M03 A2928 RMK AO2 SNB47 SLP915 P0000 T10221033 FZRANO
PFKW 202056Z AUTO 21010KT 10SM OVC037 M03/M04 A2929 RMK AO2 SLP917 T10281039 58004 FZRANO
PFKW 201956Z AUTO 22006KT 10SM OVC037 M04/M04 A2929 RMK AO2 SLP919 T10391044 FZRANO
PFKW 201856Z AUTO 21007KT 10SM OVC037 M04/M05 A2930 RMK AO2 SLP921 T10441050 FZRANO
PFKW 201756Z AUTO 22006KT 10SM FEW003 OVC037 M04/M05 A2930 RMK AO2 SLP922 T10441050 11033 21044 57006 FZRANO
PFKW 201730Z AUTO 20005KT 10SM SCT003 OVC035 M04/M04 A2930 RMK AO2 FZRANO
PFKW 201656Z AUTO 22005KT 10SM OVC035 M04/M05 A2931 RMK AO2 SLP924 T10441050 FZRANO
PFKW 201556Z AUTO 21005KT 10SM OVC004 M04/M04 A2931 RMK AO2 SLP925 T10391044 FZRANO
PFKW 201549Z AUTO 22006KT 10SM OVC004 M04/M04 A2931 RMK AO2 FZRANO
PFKW 201422Z AUTO 21008KT 1 3/4SM BR BKN002 OVC046 M04/M04 A2932 RMK AO2 VIS 1V4 FZRANO
PFKW 201414Z AUTO 21006KT 4SM BR BKN002 OVC046 M04/M05 A2933 RMK AO2 FZRANO
PFKW 201356Z AUTO 20006KT 10SM FEW002 OVC046 M04/M05 A2933 RMK AO2 SLP933 T10441050 FZRANO
PFKW 201351Z AUTO 20006KT 10SM SCT002 OVC046 M04/M05 A2933 RMK AO2 FZRANO
PFKW 201328Z AUTO 21007KT 3SM BR OVC002 M03/M04 A2934 RMK AO2 FZRANO
PFKW 201323Z AUTO 21005KT 1 1/4SM BR OVC002 M03/M04 A2934 RMK AO2 FZRANO
PFKW 201301Z AUTO 21008KT 3/4SM BR OVC002 M03/M04 A2934 RMK AO2 FZRANO
PFKW 201256Z AUTO 21007KT 1 1/4SM BR OVC002 M03/M04 A2934 RMK AO2 SLP936 T10331039 FZRANO
PFKW 201243Z AUTO 20007KT 1 3/4SM BR BKN002 OVC046 M03/M04 A2934 RMK AO2 FZRANO
PFKW 201231Z AUTO 22005KT 10SM BKN002 OVC046 M03/M03 A2935 RMK AO2 FZRANO
PFKW 201204Z AUTO 23005KT 10SM SCT002 OVC048 M03/M04 A2935 RMK AO2 FZRANO
PFKW 201156Z AUTO 20005KT 10SM OVC048 M04/M04 A2936 RMK AO2 SNB07E19 SLP941 P0000 60000 T10391039 11033 21056 56011 FZRANO
PFKW 201125Z AUTO 22006KT 10SM SCT002 OVC050 M04/M04 A2936 RMK AO2 SNB07E19 P0000 FZRANO
PFKW 201113Z AUTO 22007KT 3SM -SN BR BKN002 OVC050 M04/M04 A2937 RMK AO2 SNB07 P0000 FZRANO
PFKW 201056Z AUTO 21006KT 8SM SCT002 OVC050 M04/M05 A2937 RMK AO2 SLP947 T10441050 FZRANO
PFKW 201054Z AUTO 21007KT 8SM SCT002 OVC050 M04/M05 A2937 RMK AO2 FZRANO
PFKW 201026Z AUTO 22005KT 10SM BKN002 M06/M06 A2938 RMK AO2 FZRANO
PFKW 200946Z AUTO 22005KT 10SM SCT002 M04/M05 A2939 RMK AO2 FZRANO
PFKW 200856Z AUTO 21006KT 10SM OVC044 M04/M05 A2940 RMK AO2 SLP957 T10441050 400061044 56010 FZRANO
PFKW 200656Z AUTO 23005KT 10SM CLR M04/M04 A2942 RMK AO2 SLP962 T10391044 FZRANO
PFKW 200556Z AUTO 21006KT 10SM CLR M04/M04 A2943 RMK AO2 SNE17 SLP967 P0000 60000 T10391044 11006 21039 58016 FZRANO
PFKW 200456Z AUTO 23006KT 9SM -SN FEW039 OVC050 M02/M03 A2945 RMK AO2 SNB51 SLP974 P0000 T10221028 FZRANO
PFKW 200428Z AUTO 25005KT 10SM SCT007 OVC046 M02/M03 A2946 RMK AO2 FZRANO
PFKW 200356Z AUTO 26007KT 10SM OVC010 M02/M03 A2947 RMK AO2 SLP980 T10171033 FZRANO
PFKW 200343Z AUTO 24005KT 10SM BKN012 BKN036 OVC044 M02/M03 A2947 RMK AO2 FZRANO
PFKW 200308Z AUTO 25005KT 10SM SCT018 OVC046 M01/M03 A2948 RMK AO2 FZRANO
PFKW 200256Z AUTO 25007KT 10SM BKN018 BKN026 OVC042 M01/M03 A2948 RMK AO2 SLP984 60000 T10111033 56016 FZRANO
PFKW 200234Z AUTO 26008KT 10SM BKN026 OVC042 M01/M03 A2949 RMK AO2 FZRANO
PFKW 200225Z AUTO 25008KT 10SM FEW019 SCT026 OVC042 M01/M03 A2949 RMK AO2 FZRANO
PFKW 200156Z AUTO 22007KT 10SM BKN019 OVC024 M01/M03 A2949 RMK AO2 SNB29E45 SLP987 P0000 T10061028 FZRANO
PFKW 200135Z AUTO 22005KT 9SM -SN SCT013 BKN021 OVC037 M01/M03 A2950 RMK AO2 SNB29 P0000 FZRANO
PFKW 200056Z AUTO 22006KT 10SM FEW013 OVC044 M01/M03 A2951 RMK AO2 SLP994 T10061033 FZRANO
PFKW 200008Z AUTO 19005KT 10SM FEW008 M01/M03 A2952 RMK AO2 FZRANO
PFKW 192356Z AUTO 21006KT 10SM BKN008 M01/M03 A2953 RMK AO2 SLP000 60000 T10111033 10006 21039 58019 FZRANO
PFKW 192343Z AUTO 21007KT 10SM BKN008 M01/M03 A2953 RMK AO2 FZRANO
PFKW 192256Z AUTO 21003KT 10SM FEW006 00/M03 A2954 RMK AO2 SLP005 T00001028 FZRANO
PFKW 192212Z AUTO VRB03KT 10SM OVC006 M01/M02 A2956 RMK AO2 FZRANO
PFKW 192156Z AUTO 00000KT 10SM OVC004 M02/M03 A2957 RMK AO2 SNE48 SLP013 P0000 T10221028 FZRANO
PFKW 192056Z AUTO 00000KT 3SM -SN BR OVC004 M03/M04 A2958 RMK AO2 SLP018 P0000 60000 T10281039 56004 FZRANO
PFKW 192042Z AUTO 00000KT 7SM -SN OVC002 M04/M04 A2958 RMK AO2 P0000 FZRANO
PFKW 192017Z AUTO 28004KT 1 1/2SM -SN BR OVC002 M03/M04 A2959 RMK AO2 P0000 FZRANO
PFKW 192007Z AUTO 29003KT 1SM -SN BR OVC002 M03/M04 A2959 RMK AO2 P0000 FZRANO
PFKW 191956Z AUTO 31004KT 1 1/4SM -SN BR OVC004 M03/M04 A2959 RMK AO2 SLP020 P0000 T10331039 FZRANO
PFKW 191951Z AUTO 30006KT 3/4SM -SN BR OVC004 M03/M04 A2959 RMK AO2 P0000 FZRANO
PFKW 191945Z AUTO 31005KT 1 3/4SM BR OVC004 M03/M04 A2959 RMK AO2 VIS 3/4V5 SNE45 P0000 FZRANO
PFKW 191856Z AUTO 31005KT 9SM -SN OVC004 M03/M04 A2959 RMK AO2 SLP020 P0000 T10331039 FZRANO
PFKW 191841Z AUTO 31004KT 9SM -SN OVC004 M04/M04 A2959 RMK AO2 P0000 FZRANO
PFKW 191756Z AUTO 28005KT 8SM -SN OVC006 M04/M04 A2959 RMK AO2 SLP022 P0000 60000 T10391044 11022 21039 53001 FZRANO
PFKW 191742Z AUTO 31005KT 9SM -SN OVC006 M03/M04 A2959 RMK AO2 P0000 FZRANO
PFKW 191718Z AUTO 31003KT 4SM -SN BR OVC004 M03/M04 A2959 RMK AO2 P0000 FZRANO
PFKW 191653Z AUTO 31005KT 3SM -SN BR OVC004 M03/M04 A2959 RMK AO2 SNE04B31 P0000 FZRANO
PFKW 191651Z AUTO 31004KT 2 1/2SM -SN BR OVC002 M03/M04 A2959 RMK AO2 VIS 1 3/4V3 SNE04B31 P0000 FZRANO
PFKW 191640Z AUTO 30005KT 1 3/4SM -SN BR OVC002 M03/M04 A2959 RMK AO2 SNE04B31 P0000 FZRANO
PFKW 191606Z AUTO 32005KT 2 1/2SM BR OVC002 M03/M03 A2959 RMK AO2 VIS 1 3/4V5 SNE04 P0000 FZRANO
PFKW 191556Z AUTO 32006KT 3SM -SN BR OVC002 M03/M03 A2959 RMK AO2 SLP021 P0000 T10281033 FZRANO
PFKW 191536Z AUTO 31007KT 4SM -SN BR OVC002 M03/M03 A2959 RMK AO2 P0000 FZRANO
PFKW 191520Z AUTO 30007KT 2SM -SN BR OVC002 M03/M03 A2960 RMK AO2 VIS 1 1/2V4 P0000 FZRANO
PFKW 191509Z AUTO 30007KT 3SM -SN BR OVC002 M03/M03 A2960 RMK AO2 P0000 FZRANO
PFKW 191503Z AUTO 31006KT 1 1/2SM -SN BR OVC002 M03/M03 A2960 RMK AO2 P0000 FZRANO